Time;durP1;ratioP1;P1;durP2;ratioP2;P2;SDS_P1;SDS_P2;PMS_P1;PMS_P2;Temp;Humidity;BMP_temperature;BMP_pressure;BME280_temperature;BME280_humidity;BME280_pressure;Samples;Min_cycle;Max_cycle;Signal;HPM_P1;HPM_P2
2023/07/01 00:02:42;;;;;;;4.80;2.35;;;;;;;15.87;100.00;100560.16;4965155;28;20043;-82
2023/07/01 00:05:28;;;;;;;3.80;2.67;;;;;;;15.87;100.00;100560.16;4965437;28;20043;-80
2023/07/01 00:08:14;;;;;;;3.85;2.90;;;;;;;15.86;100.00;100553.94;4963019;28;20152;-81
2023/07/01 00:11:00;;;;;;;4.30;2.42;;;;;;;15.84;100.00;100545.22;4978349;28;20461;-81
2023/07/01 00:13:46;;;;;;;8.25;3.13;;;;;;;15.84;100.00;100542.53;4967099;28;20049;-80
2023/07/01 00:16:32;;;;;;;3.92;2.90;;;;;;;15.82;100.00;100541.81;4965536;28;20058;-79
2023/07/01 00:19:18;;;;;;;5.28;3.10;;;;;;;15.78;100.00;100536.78;4962598;28;20541;-79
2023/07/01 00:22:04;;;;;;;5.00;2.83;;;;;;;15.74;100.00;100536.16;4964621;28;20489;-79
2023/07/01 00:24:53;;;;;;;4.43;2.92;;;;;;;15.71;100.00;100529.25;4976029;28;20043;-81
2023/07/01 00:27:39;;;;;;;9.55;3.72;;;;;;;15.69;100.00;100520.47;4963097;28;20051;-80
2023/07/01 00:30:25;;;;;;;6.57;3.38;;;;;;;15.69;100.00;100520.47;4976281;28;20674;-81
2023/07/01 00:33:10;;;;;;;8.70;3.10;;;;;;;15.66;100.00;100511.84;4965182;28;20042;-85
2023/07/01 00:35:56;;;;;;;6.28;3.05;;;;;;;15.62;100.00;100508.53;4963078;28;20057;-81
2023/07/01 00:38:44;;;;;;;4.45;2.92;;;;;;;15.58;100.00;100505.25;4964190;28;20046;-83
2023/07/01 00:41:30;;;;;;;4.88;3.10;;;;;;;15.57;100.00;100500.88;4975908;28;20125;-80
2023/07/01 00:44:15;;;;;;;4.43;2.83;;;;;;;15.54;100.00;100500.25;4964427;28;20039;-81
2023/07/01 00:47:04;;;;;;;5.28;2.95;;;;;;;15.50;100.00;100496.94;4968588;28;20101;-81
2023/07/01 00:49:51;;;;;;;7.35;3.08;;;;;;;15.45;100.00;100488.41;4965214;28;20039;-82
2023/07/01 00:52:38;;;;;;;3.67;2.70;;;;;;;15.42;100.00;100491.31;4964837;28;20097;-83
2023/07/01 00:55:23;;;;;;;5.10;3.58;;;;;;;15.39;100.00;100478.19;4963681;28;20128;-81
2023/07/01 00:58:09;;;;;;;6.47;3.63;;;;;;;15.36;100.00;100475.75;4963760;28;20042;-85
2023/07/01 01:00:56;;;;;;;5.97;4.18;;;;;;;15.33;100.00;100463.50;4967132;28;20042;-85
2023/07/01 01:04:13;;;;;;;9.13;4.80;;;;;;;15.25;100.00;100458.69;4963289;28;20034;-86
2023/07/01 01:07:08;;;;;;;6.22;4.00;;;;;;;15.22;100.00;100458.94;4961318;28;20039;-82
2023/07/01 01:10:03;;;;;;;7.32;4.43;;;;;;;15.18;100.00;100452.97;4968022;28;20030;-85
2023/07/01 01:12:51;;;;;;;5.45;3.72;;;;;;;15.15;100.00;100455.84;4965427;28;20469;-81
2023/07/01 01:15:38;;;;;;;5.25;3.88;;;;;;;15.13;100.00;100449.75;4963962;28;20035;-87
2023/07/01 01:18:28;;;;;;;5.93;4.13;;;;;;;15.13;100.00;100440.91;4955440;28;20030;-84
2023/07/01 01:21:16;;;;;;;5.03;4.10;;;;;;;15.13;100.00;100436.44;4978559;28;20051;-85
2023/07/01 01:24:05;;;;;;;4.18;3.70;;;;;;;15.14;100.00;100434.63;4962917;28;20904;-79
2023/07/01 01:26:54;;;;;;;5.70;4.15;;;;;;;15.15;100.00;100421.16;4966140;28;20030;-81
2023/07/01 01:29:42;;;;;;;6.15;4.35;;;;;;;15.13;100.00;100412.44;4962520;28;20049;-86
2023/07/01 01:32:28;;;;;;;5.93;3.92;;;;;;;15.13;100.00;100414.25;4976544;28;20156;-80
2023/07/01 01:35:14;;;;;;;5.57;4.25;;;;;;;15.11;100.00;100408.19;4949490;28;20129;-86
2023/07/01 01:38:28;;;;;;;6.22;4.57;;;;;;;15.11;100.00;100413.50;4961202;28;20064;-83
2023/07/01 01:41:21;;;;;;;8.63;4.68;;;;;;;15.10;100.00;100404.69;4967245;28;20039;-82
2023/07/01 01:44:11;;;;;;;6.82;4.50;;;;;;;15.10;100.00;100396.69;4965394;28;20039;-83
2023/07/01 01:47:00;;;;;;;7.82;4.10;;;;;;;15.10;100.00;100388.69;4956069;28;20057;-82
2023/07/01 01:49:48;;;;;;;8.43;4.60;;;;;;;15.14;100.00;100386.66;4975250;28;20081;-83
2023/07/01 01:52:35;;;;;;;7.20;4.88;;;;;;;15.17;100.00;100386.41;4963293;28;20128;-82
2023/07/01 01:55:21;;;;;;;7.57;4.82;;;;;;;15.17;100.00;100371.28;4964993;28;22048;-82
2023/07/01 01:58:07;;;;;;;7.25;4.10;;;;;;;15.15;100.00;100364.34;4950055;28;20077;-80
2023/07/01 02:00:53;;;;;;;6.78;4.45;;;;;;;15.18;100.00;100378.31;4962951;28;20049;-81
2023/07/01 02:03:39;;;;;;;8.20;4.15;;;;;;;15.18;100.00;100362.31;4961989;28;20078;-83
2023/07/01 02:06:25;;;;;;;6.25;4.15;;;;;;;15.18;100.00;100362.31;4962299;28;20126;-79
2023/07/01 02:09:10;;;;;;;5.13;4.18;;;;;;;15.18;100.00;100356.13;4967742;28;20485;-83
2023/07/01 02:11:56;;;;;;;7.85;4.07;;;;;;;15.18;100.00;100353.44;4975808;28;20050;-83
2023/07/01 02:14:42;;;;;;;6.05;4.32;;;;;;;15.18;100.00;100348.97;4964126;28;20074;-84
2023/07/01 02:17:28;;;;;;;5.75;4.43;;;;;;;15.19;100.00;100347.16;4974075;28;20046;-83
2023/07/01 02:20:14;;;;;;;6.18;4.38;;;;;;;15.19;100.00;100347.16;4963974;28;20049;-82
2023/07/01 02:22:59;;;;;;;6.75;4.70;;;;;;;15.18;100.00;100335.66;4963908;28;20053;-83
2023/07/01 02:25:45;;;;;;;8.07;4.60;;;;;;;15.18;100.00;100334.78;4954170;28;20565;-82
2023/07/01 02:28:31;;;;;;;8.73;4.93;;;;;;;15.16;100.00;100326.88;4956483;28;20414;-83
2023/07/01 02:31:20;;;;;;;8.63;5.13;;;;;;;15.15;100.00;100335.03;4960860;28;20053;-82
2023/07/01 02:34:06;;;;;;;7.25;5.03;;;;;;;15.14;100.00;100330.66;4975104;28;20486;-81
2023/07/01 02:36:52;;;;;;;8.18;5.05;;;;;;;15.11;100.00;100321.06;4962900;28;20039;-83
2023/07/01 02:39:39;;;;;;;8.10;5.43;;;;;;;15.13;100.00;100326.25;4962703;28;22010;-82
2023/07/01 02:42:25;;;;;;;9.07;5.93;;;;;;;15.13;100.00;100320.94;4960746;28;20038;-82
2023/07/01 02:45:11;;;;;;;8.93;5.85;;;;;;;15.16;100.00;100320.72;4976847;28;20173;-81
2023/07/01 02:47:56;;;;;;;8.70;6.25;;;;;;;15.17;100.00;100314.41;4963928;28;20905;-81
2023/07/01 02:50:42;;;;;;;8.40;6.10;;;;;;;15.19;100.00;100315.16;4965814;28;20600;-78
2023/07/01 02:53:28;;;;;;;10.77;6.60;;;;;;;15.20;100.00;100314.22;4980268;28;20038;-80
2023/07/01 02:56:14;;;;;;;9.43;6.22;;;;;;;15.20;100.00;100306.22;4966771;28;20117;-82
2023/07/01 02:58:59;;;;;;;9.65;6.00;;;;;;;15.21;100.00;100310.56;4966446;28;20054;-84
2023/07/01 03:01:46;;;;;;;10.18;6.60;;;;;;;15.21;100.00;100302.56;4966053;28;20050;-82
2023/07/01 03:04:33;;;;;;;11.10;6.53;;;;;;;15.22;100.00;100298.94;4966350;28;20563;-81
2023/07/01 03:07:19;;;;;;;9.52;6.32;;;;;;;15.21;100.00;100297.25;4965087;28;20161;-82
2023/07/01 03:10:06;;;;;;;10.02;7.18;;;;;;;15.22;100.00;100298.94;4964821;28;20923;-80
2023/07/01 03:12:53;;;;;;;10.25;6.75;;;;;;;15.25;100.00;100301.38;4965874;28;21895;-81
2023/07/01 03:15:39;;;;;;;8.98;6.95;;;;;;;15.27;100.00;100286.13;4966740;28;20501;-87
2023/07/01 03:18:24;;;;;;;8.82;6.85;;;;;;;15.30;100.00;100290.34;4966446;28;20117;-81
2023/07/01 03:21:10;;;;;;;7.03;5.70;;;;;;;15.33;100.00;100276.81;4977568;28;20073;-81
2023/07/01 03:23:56;;;;;;;6.45;5.30;;;;;;;15.33;100.00;100275.00;4967545;28;20762;-82
2023/07/01 03:26:43;;;;;;;9.48;5.38;;;;;;;15.34;100.00;100271.38;4964711;28;20027;-80
2023/07/01 03:29:28;;;;;;;7.25;5.50;;;;;;;15.36;100.00;100270.41;4964810;28;20073;-82
2023/07/01 03:32:14;;;;;;;7.78;5.22;;;;;;;15.37;100.00;100264.97;4966361;28;20047;-85
2023/07/01 03:35:00;;;;;;;7.00;5.57;;;;;;;15.39;100.00;100262.16;4978554;28;20043;-82
2023/07/01 03:37:46;;;;;;;6.80;5.45;;;;;;;15.41;100.00;100261.06;4942996;28;20053;-83
2023/07/01 03:40:31;;;;;;;7.60;5.97;;;;;;;15.42;100.00;100254.78;4969147;28;20030;-81
2023/07/01 03:43:17;;;;;;;10.98;6.10;;;;;;;15.43;100.00;100250.31;4952270;28;20045;-80
2023/07/01 03:46:03;;;;;;;8.68;6.20;;;;;;;15.44;100.00;100250.19;4964624;28;20038;-81
2023/07/01 03:48:49;;;;;;;8.45;6.35;;;;;;;15.45;100.00;100241.22;4954257;28;20552;-82
2023/07/01 03:51:35;;;;;;;9.80;7.13;;;;;;;15.48;100.00;100240.16;4964380;28;20038;-81
2023/07/01 03:54:20;;;;;;;10.45;7.43;;;;;;;15.49;100.00;100239.16;4963524;28;20074;-80
2023/07/01 03:57:06;;;;;;;9.73;7.60;;;;;;;15.50;100.00;100234.66;4964843;28;20038;-81
2023/07/01 03:59:52;;;;;;;10.27;7.50;;;;;;;15.48;100.00;100230.31;4965088;28;20062;-81
2023/07/01 04:02:38;;;;;;;11.65;7.55;;;;;;;15.46;100.00;100232.25;4966242;28;20482;-81
2023/07/01 04:05:23;;;;;;;10.30;7.72;;;;;;;15.48;100.00;100218.81;4956857;28;20750;-84
2023/07/01 04:08:09;;;;;;;11.40;7.65;;;;;;;15.50;100.00;100227.53;4969702;28;20053;-83
2023/07/01 04:10:58;;;;;;;9.43;7.50;;;;;;;15.51;100.00;100231.06;4963839;28;20034;-79
2023/07/01 04:13:44;;;;;;;10.75;6.68;;;;;;;15.48;100.00;100222.31;4966636;28;20462;-86
2023/07/01 04:16:29;;;;;;;10.35;7.15;;;;;;;15.48;100.00;100216.13;4946244;28;20072;-83
2023/07/01 04:19:15;;;;;;;9.52;7.22;;;;;;;15.51;100.00;100207.88;4965638;28;20121;-82
2023/07/01 04:22:01;;;;;;;9.70;6.90;;;;;;;15.49;100.00;100204.50;4963118;28;20042;-84
2023/07/01 04:24:49;;;;;;;8.43;6.55;;;;;;;15.50;100.00;100200.84;4963953;28;20050;-84
2023/07/01 04:27:35;;;;;;;9.60;6.80;;;;;;;15.50;100.00;100203.53;4964619;28;20042;-80
2023/07/01 04:30:21;;;;;;;9.35;6.63;;;;;;;15.52;100.00;100200.75;4964799;28;20034;-83
2023/07/01 04:33:07;;;;;;;8.95;6.30;;;;;;;15.51;100.00;100199.88;4967604;28;20184;-81
2023/07/01 04:35:53;;;;;;;8.77;6.35;;;;;;;15.52;100.00;100196.25;4965605;28;21049;-82
2023/07/01 04:38:39;;;;;;;9.05;6.22;;;;;;;15.53;100.00;100189.94;4977100;28;20497;-79
2023/07/01 04:41:25;;;;;;;8.63;6.10;;;;;;;15.53;100.00;100197.94;4966157;28;20038;-82
2023/07/01 04:44:10;;;;;;;7.20;5.50;;;;;;;15.53;100.00;100189.94;4967606;28;20050;-81
2023/07/01 04:46:56;;;;;;;7.95;5.82;;;;;;;15.55;100.00;100193.34;4949362;28;20081;-80
2023/07/01 04:49:42;;;;;;;7.80;5.25;;;;;;;15.55;100.00;100188.03;4963047;28;20038;-82
2023/07/01 04:52:28;;;;;;;7.28;5.32;;;;;;;15.57;100.00;100179.88;4952942;28;20035;-82
2023/07/01 04:55:15;;;;;;;7.18;5.13;;;;;;;15.57;100.00;100185.22;4963693;28;20038;-84
2023/07/01 04:58:00;;;;;;;6.22;4.35;;;;;;;15.58;100.00;100186.94;4962989;28;20089;-80
2023/07/01 05:00:46;;;;;;;6.93;5.25;;;;;;;15.60;100.00;100191.16;4964354;28;20251;-81
2023/07/01 05:03:32;;;;;;;6.72;4.95;;;;;;;15.60;100.00;100183.16;4963664;28;20047;-81
2023/07/01 05:06:18;;;;;;;6.50;4.97;;;;;;;15.64;100.00;100180.28;4965413;28;20086;-82
2023/07/01 05:09:04;;;;;;;6.47;4.78;;;;;;;15.64;100.00;100186.47;4947615;28;20138;-84
2023/07/01 05:11:50;;;;;;;5.95;4.57;;;;;;;15.65;100.00;100184.63;4944523;28;20627;-86
2023/07/01 05:14:36;;;;;;;5.90;4.63;;;;;;;15.66;100.00;100189.84;4944974;28;20126;-80
2023/07/01 05:17:21;;;;;;;5.28;4.20;;;;;;;15.68;100.00;100190.56;4943383;28;20035;-83
2023/07/01 05:20:08;;;;;;;7.90;4.90;;;;;;;15.69;100.00;100183.44;4931595;28;20035;-81
2023/07/01 05:22:54;;;;;;;6.05;4.47;;;;;;;15.71;100.00;100182.34;4938261;28;20059;-83
2023/07/01 05:25:40;;;;;;;5.25;4.20;;;;;;;15.72;100.00;100177.84;4944515;28;20046;-81
2023/07/01 05:28:26;;;;;;;7.93;4.57;;;;;;;15.73;100.00;100182.22;4930870;28;20039;-83
2023/07/01 05:31:12;;;;;;;6.70;4.80;;;;;;;15.73;100.00;100174.22;4945749;28;20443;-85
2023/07/01 05:33:58;;;;;;;5.35;4.00;;;;;;;15.78;100.00;100182.72;4944859;28;20035;-84
2023/07/01 05:36:44;;;;;;;6.13;4.38;;;;;;;15.77;100.00;100170.34;4945284;28;20110;-83
2023/07/01 05:39:30;;;;;;;5.00;3.88;;;;;;;15.78;100.00;100181.84;4944835;28;20038;-85
2023/07/01 05:42:15;;;;;;;5.22;4.15;;;;;;;15.76;100.00;100173.97;4946449;28;20042;-86
2023/07/01 05:45:01;;;;;;;4.63;3.45;;;;;;;15.76;100.00;100176.66;4931554;28;20481;-86
2023/07/01 05:47:47;;;;;;;5.00;3.42;;;;;;;15.80;100.00;100180.75;4943007;28;20040;-85
2023/07/01 05:50:33;;;;;;;5.90;3.75;;;;;;;15.79;100.00;100171.06;4943527;28;20439;-85
2023/07/01 05:53:19;;;;;;;4.32;3.38;;;;;;;15.82;100.00;100170.84;4937048;28;20057;-83
2023/07/01 05:56:07;;;;;;;5.28;3.10;;;;;;;15.81;100.00;100169.16;4943803;28;20050;-84
2023/07/01 05:58:53;;;;;;;4.10;3.00;;;;;;;15.81;100.00;100170.94;4929400;28;20039;-80
2023/07/01 06:01:39;;;;;;;3.92;3.13;;;;;;;15.82;100.00;100170.84;4943251;28;20061;-81
2023/07/01 06:04:24;;;;;;;3.50;2.85;;;;;;;15.84;100.00;100170.69;4935038;28;20070;-82
2023/07/01 06:07:10;;;;;;;4.07;2.83;;;;;;;15.83;100.00;100169.00;4942874;28;20038;-80
2023/07/01 06:09:52;;;;;;;2.80;2.58;;;;;;;15.84;100.00;100171.56;4935232;28;20089;-81
2023/07/01 06:12:38;;;;;;;2.42;2.22;;;;;;;15.84;100.00;100160.03;4945537;28;20065;-81
2023/07/01 06:15:24;;;;;;;2.63;2.35;;;;;;;15.86;100.00;100169.59;4945441;28;20111;-82
2023/07/01 06:18:09;;;;;;;3.42;2.58;;;;;;;15.87;100.00;100168.63;4928831;28;20047;-81
2023/07/01 06:20:56;;;;;;;3.30;2.45;;;;;;;15.90;100.00;100164.88;4915967;28;20504;-83
2023/07/01 06:23:41;;;;;;;4.50;2.53;;;;;;;15.93;100.00;100163.81;4938499;28;20038;-82
2023/07/01 06:26:30;;;;;;;3.10;2.25;;;;;;;15.95;100.00;100164.56;4948115;28;20045;-82
2023/07/01 06:29:16;;;;;;;2.78;2.25;;;;;;;15.96;100.00;100155.59;4949701;28;20794;-83
2023/07/01 06:32:02;;;;;;;3.25;2.50;;;;;;;15.98;100.00;100142.97;4925690;28;20035;-81
2023/07/01 06:34:48;;;;;;;3.15;2.40;;;;;;;16.01;100.00;100148.91;4945197;28;20043;-81
2023/07/01 06:37:33;;;;;;;2.83;2.55;;;;;;;16.05;100.00;100143.31;4949051;28;20081;-81
2023/07/01 06:40:19;;;;;;;3.28;2.72;;;;;;;16.06;100.00;100140.53;4939750;28;20858;-83
2023/07/01 06:43:05;;;;;;;2.58;2.38;;;;;;;16.11;100.00;100148.16;4947825;28;20055;-81
2023/07/01 06:45:51;;;;;;;3.10;2.55;;;;;;;16.12;100.00;100148.03;4934570;28;20180;-80
2023/07/01 06:48:37;;;;;;;3.10;2.30;;;;;;;16.15;100.00;100147.81;4943289;28;20477;-80
2023/07/01 06:51:23;;;;;;;4.55;2.28;;;;;;;16.20;100.00;100147.44;4945948;28;20634;-81
2023/07/01 06:54:11;;;;;;;5.35;2.42;;;;;;;16.23;100.00;100149.00;4949137;28;20039;-80
2023/07/01 06:56:59;;;;;;;2.50;2.25;;;;;;;16.26;100.00;100148.75;4926782;28;20039;-80
2023/07/01 06:59:45;;;;;;;2.90;2.20;;;;;;;16.27;100.00;100142.44;4946639;28;20475;-79
2023/07/01 07:02:30;;;;;;;2.90;2.20;;;;;;;16.28;100.00;100141.44;4945887;28;20043;-79
2023/07/01 07:05:16;;;;;;;2.50;2.00;;;;;;;16.29;100.00;100137.84;4948053;28;20051;-82
2023/07/01 07:08:02;;;;;;;2.17;1.90;;;;;;;16.33;100.00;100125.91;4947546;28;20142;-81
2023/07/01 07:10:48;;;;;;;2.72;2.00;;;;;;;16.36;100.00;100140.84;4947913;28;20466;-82
2023/07/01 07:13:33;;;;;;;1.83;1.50;;;;;;;16.43;100.00;100142.91;4922351;28;20997;-82
2023/07/01 07:16:19;;;;;;;1.60;1.50;;;;;;;16.46;100.00;100138.28;4939275;28;20778;-82
2023/07/01 07:19:05;;;;;;;1.80;1.52;;;;;;;16.45;100.00;100140.09;4947288;28;20117;-83
2023/07/01 07:21:51;;;;;;;2.28;1.60;;;;;;;16.45;100.00;100136.59;4947622;28;20058;-83
2023/07/01 07:24:36;;;;;;;1.33;1.23;;;;;;;16.46;100.00;100133.78;4947406;28;20074;-81
2023/07/01 07:27:22;;;;;;;1.50;1.40;;;;;;;16.45;100.00;100136.59;4933989;28;20445;-80
2023/07/01 07:30:08;;;;;;;1.45;1.35;;;;;;;16.44;100.00;100135.72;4947920;28;20047;-81
2023/07/01 07:32:54;;;;;;;1.20;1.10;;;;;;;16.47;100.00;100134.63;4935254;28;20047;-81
2023/07/01 07:35:40;;;;;;;1.58;1.40;;;;;;;16.49;100.00;100133.53;4946837;28;20087;-82
2023/07/01 07:38:26;;;;;;;1.35;1.25;;;;;;;16.49;100.00;100138.00;4936038;28;20122;-81
2023/07/01 07:41:12;;;;;;;1.40;1.30;;;;;;;16.50;100.00;100131.72;4946052;28;20039;-81
2023/07/01 07:43:58;;;;;;;1.60;1.50;;;;;;;16.53;100.00;100132.31;4934831;28;20054;-83
2023/07/01 07:46:44;;;;;;;1.92;1.63;;;;;;;16.57;100.00;100132.91;4933429;28;20039;-80
2023/07/01 07:49:30;;;;;;;1.50;1.40;;;;;;;16.57;100.00;100135.59;4934572;28;20058;-82
2023/07/01 07:52:16;;;;;;;1.75;1.40;;;;;;;16.57;100.00;100135.59;4944707;28;20039;-81
2023/07/01 07:55:02;;;;;;;1.33;1.23;;;;;;;16.60;100.00;100135.31;4947065;28;20054;-82
2023/07/01 07:57:48;;;;;;;1.00;1.00;;;;;;;16.64;100.00;100134.09;4935304;28;20042;-82
2023/07/01 08:00:34;;;;;;;1.20;1.10;;;;;;;16.66;100.00;100140.16;4956525;28;20097;-82
2023/07/01 08:03:20;;;;;;;1.30;1.20;;;;;;;16.65;100.00;100138.47;4962232;28;20126;-82
2023/07/01 08:06:09;;;;;;;1.33;1.23;;;;;;;16.68;100.00;100132.84;4960539;28;20039;-79
2023/07/01 08:08:55;;;;;;;1.90;1.67;;;;;;;16.69;100.00;100139.06;4961741;28;20142;-80
2023/07/01 08:11:41;;;;;;;1.45;1.20;;;;;;;16.70;100.00;100125.56;4960981;28;20576;-79
2023/07/01 08:14:27;;;;;;;1.50;1.40;;;;;;;16.73;100.00;100134.31;4959911;28;20034;-82
2023/07/01 08:17:12;;;;;;;1.60;1.08;;;;;;;16.74;100.00;100136.00;4949415;28;20398;-81
2023/07/01 08:19:58;;;;;;;1.20;1.10;;;;;;;16.73;100.00;100135.16;4962174;28;20039;-80
2023/07/01 08:22:44;;;;;;;1.27;1.17;;;;;;;16.76;100.00;100144.72;4947168;28;20141;-79
2023/07/01 08:25:30;;;;;;;1.30;1.20;;;;;;;16.81;100.00;100137.19;4947564;28;20730;-80
2023/07/01 08:28:16;;;;;;;0.82;0.82;;;;;;;16.82;100.00;100133.53;4963150;28;20054;-78
2023/07/01 08:31:04;;;;;;;2.30;0.80;;;;;;;16.77;100.00;100135.75;4950524;28;20403;-80
2023/07/01 08:33:50;;;;;;;0.70;0.70;;;;;;;16.78;100.00;100134.78;4946769;28;20038;-80
2023/07/01 08:36:35;;;;;;;0.80;0.80;;;;;;;16.79;100.00;100131.97;4961570;28;20336;-81
2023/07/01 08:39:24;;;;;;;1.27;0.90;;;;;;;16.83;100.00;100138.75;4960441;28;21981;-80
2023/07/01 08:42:15;;;;;;;0.80;0.80;;;;;;;16.85;100.00;100133.28;4948103;28;21960;-79
2023/07/01 08:45:02;;;;;;;1.30;1.20;;;;;;;16.85;100.00;100135.97;4959271;28;20043;-79
2023/07/01 08:47:48;;;;;;;1.98;1.75;;;;;;;16.86;100.00;100134.13;4960196;28;20054;-81
2023/07/01 08:50:42;;;;;;;2.70;1.92;;;;;;;16.89;100.00;100134.72;4946227;28;20046;-79
2023/07/01 08:53:30;;;;;;;2.83;2.40;;;;;;;16.91;100.00;100131.91;4961396;28;20039;-80
2023/07/01 08:56:19;;;;;;;4.35;3.22;;;;;;;16.91;100.00;100132.78;4959458;28;21333;-78
2023/07/01 08:59:05;;;;;;;3.25;2.78;;;;;;;16.90;100.00;100135.56;4948955;28;20065;-78
2023/07/01 09:01:51;;;;;;;3.15;2.80;;;;;;;16.87;100.00;100136.69;4960945;28;20043;-81
2023/07/01 09:04:37;;;;;;;3.88;2.40;;;;;;;16.83;100.00;100141.44;4958441;28;20070;-80
2023/07/01 09:07:23;;;;;;;2.90;2.42;;;;;;;16.75;100.00;100143.91;4960809;28;20505;-79
2023/07/01 09:10:11;;;;;;;4.68;2.70;;;;;;;16.67;100.00;100139.19;4960689;28;20808;-79
2023/07/01 09:13:13;;;;;;;4.45;2.83;;;;;;;16.68;100.00;100142.72;4959818;28;20063;-80
2023/07/01 09:15:59;;;;;;;3.35;2.88;;;;;;;16.70;100.00;100135.41;4961267;28;20466;-79
2023/07/01 09:18:47;;;;;;;4.57;3.40;;;;;;;16.74;100.00;100136.00;4955893;28;20079;-80
2023/07/01 09:21:33;;;;;;;5.85;3.60;;;;;;;16.75;100.00;100143.91;4957495;28;20035;-79
2023/07/01 09:24:37;;;;;;;5.65;4.03;;;;;;;16.78;100.00;100142.81;4961147;28;21068;-78
2023/07/01 09:27:46;;;;;;;6.13;4.38;;;;;;;16.82;100.00;100130.84;4951769;28;20101;-79
2023/07/01 09:30:36;;;;;;;6.85;4.18;;;;;;;16.89;100.00;100140.06;4958972;28;20130;-79
2023/07/01 09:33:22;;;;;;;6.53;4.78;;;;;;;16.94;100.00;100140.53;4943724;28;20401;-79
2023/07/01 09:36:09;;;;;;;7.90;5.28;;;;;;;17.02;100.00;100139.06;4959868;28;20129;-80
2023/07/01 09:38:55;;;;;;;11.68;5.82;;;;;;;17.16;100.00;100141.41;4950291;28;20047;-79
2023/07/01 09:41:41;;;;;;;8.93;5.63;;;;;;;17.30;100.00;100142.06;4943401;28;20069;-78
2023/07/01 09:44:27;;;;;;;8.93;5.40;;;;;;;17.34;100.00;100139.00;4959196;28;20049;-79
2023/07/01 09:47:25;;;;;;;9.60;4.68;;;;;;;17.37;100.00;100143.25;4944074;28;20149;-80
2023/07/01 09:50:20;;;;;;;6.22;4.25;;;;;;;17.32;100.00;100140.13;4958765;28;20089;-80
2023/07/01 09:53:18;;;;;;;5.60;3.67;;;;;;;17.37;100.00;100135.22;4946476;28;20034;-76
2023/07/01 09:56:04;;;;;;;5.07;3.80;;;;;;;17.34;100.00;100136.34;4959720;28;20133;-77
2023/07/01 09:58:50;;;;;;;5.65;3.65;;;;;;;17.37;100.00;100143.25;4958891;28;20066;-79
2023/07/01 10:01:36;;;;;;;5.55;3.45;;;;;;;17.32;100.00;100140.13;4959980;28;20121;-79
2023/07/01 10:04:25;;;;;;;6.60;4.20;;;;;;;17.33;100.00;100134.63;4961111;28;20122;-78
2023/07/01 10:07:11;;;;;;;7.65;4.78;;;;;;;17.38;100.00;100144.97;4959736;28;20518;-78
2023/07/01 10:10:00;;;;;;;5.72;4.45;;;;;;;17.38;100.00;100134.28;4946370;28;20972;-77
2023/07/01 10:12:50;;;;;;;6.97;5.13;;;;;;;17.39;100.00;100135.97;4960643;28;20039;-77
2023/07/01 10:15:38;;;;;;;6.65;4.28;;;;;;;17.39;100.00;100135.97;4958907;28;20057;-78
2023/07/01 10:18:30;;;;;;;7.55;5.18;;;;;;;17.40;100.00;100129.63;4945155;28;20041;-78
2023/07/01 10:21:29;;;;;;;7.10;5.35;;;;;;;17.48;100.00;100124.47;4946756;28;20042;-78
2023/07/01 10:24:35;;;;;;;7.65;5.13;;;;;;;17.55;100.00;100130.13;4959043;28;20031;-78
2023/07/01 10:27:39;;;;;;;8.48;4.97;;;;;;;17.59;100.00;100136.06;4960124;28;20137;-77
2023/07/01 10:30:26;;;;;;;9.35;5.80;;;;;;;17.61;100.00;100129.59;4959481;28;20031;-80
2023/07/01 10:33:32;;;;;;;8.98;6.07;;;;;;;17.62;100.00;100125.94;4948132;28;20046;-79
2023/07/01 10:36:18;;;;;;;10.70;6.00;;;;;;;17.49;100.00;100131.50;4958242;28;20430;-79
2023/07/01 10:39:33;;;;;;;8.38;5.60;;;;;;;17.44;100.00;100133.72;4943675;28;20035;-79
2023/07/01 10:42:32;;;;;;;9.30;6.15;;;;;;;17.35;100.00;100126.50;4956207;28;20058;-78
2023/07/01 10:45:30;;;;;;;8.80;5.78;;;;;;;17.35;100.00;100140.72;4946743;28;22008;-81
2023/07/01 10:48:16;;;;;;;8.52;6.35;;;;;;;17.37;100.00;100137.91;4963844;28;20109;-79
2023/07/01 10:51:04;;;;;;;10.20;5.50;;;;;;;17.39;100.00;100135.97;4947639;28;20035;-81
2023/07/01 10:54:02;;;;;;;10.73;7.43;;;;;;;17.42;100.00;100134.84;4945662;28;20042;-78
2023/07/01 10:57:14;;;;;;;7.60;5.63;;;;;;;17.50;100.00;100138.53;4955094;28;20106;-78
2023/07/01 11:00:34;;;;;;;10.60;6.03;;;;;;;17.55;100.00;100134.63;4958591;28;20099;-78
2023/07/01 11:03:32;;;;;;;8.32;6.00;;;;;;;17.56;100.00;100137.19;4944382;28;20051;-78
2023/07/01 11:06:18;;;;;;;9.02;5.82;;;;;;;17.62;100.00;100144.69;4957837;28;20042;-78
2023/07/01 11:09:04;;;;;;;10.48;6.10;;;;;;;17.77;100.00;100137.13;4956985;28;20039;-79
2023/07/01 11:11:50;;;;;;;9.20;6.50;;;;;;;17.87;100.00;100139.03;4964199;28;20038;-79
2023/07/01 11:14:38;;;;;;;8.32;5.90;;;;;;;17.87;100.00;100145.19;4949621;28;20035;-82
2023/07/01 11:17:26;;;;;;;8.65;6.38;;;;;;;17.87;100.00;100139.03;4964504;28;20027;-85
2023/07/01 11:20:11;;;;;;;5.43;4.38;;;;;;;17.82;100.00;100135.88;4962811;28;20145;-78
2023/07/01 11:23:00;;;;;;;7.40;4.80;;;;;;;17.81;100.00;100139.56;4949441;28;20530;-80
2023/07/01 11:25:46;;;;;;;6.20;4.50;;;;;;;17.80;100.00;100140.53;4957942;28;20067;-78
2023/07/01 11:28:36;;;;;;;7.70;4.65;;;;;;;17.80;100.00;100144.03;4954374;28;20505;-80
2023/07/01 11:31:25;;;;;;;6.72;4.80;;;;;;;17.85;100.00;100146.31;4960992;28;20486;-81
2023/07/01 11:34:14;;;;;;;4.80;3.65;;;;;;;17.85;100.00;100146.31;4962668;28;20042;-80
2023/07/01 11:37:00;;;;;;;2.97;2.70;;;;;;;17.73;100.00;100153.59;4962067;28;20065;-81
2023/07/01 11:39:46;;;;;;;4.05;2.92;;;;;;;17.71;100.00;100151.03;4954037;28;20042;-80
2023/07/01 11:42:31;;;;;;;4.53;2.95;;;;;;;17.86;100.00;100148.03;4950441;28;20141;-78
2023/07/01 11:45:17;;;;;;;3.78;3.25;;;;;;;18.12;100.00;100143.06;4962398;28;20093;-79
2023/07/01 11:48:03;;;;;;;4.82;3.03;;;;;;;18.23;100.00;100152.84;4964381;28;20117;-78
2023/07/01 11:50:52;;;;;;;5.72;3.30;;;;;;;18.31;100.00;100153.00;4951553;28;20043;-79
2023/07/01 11:53:55;;;;;;;4.85;3.78;;;;;;;18.49;100.00;100160.38;4962156;28;20475;-80
2023/07/01 11:56:45;;;;;;;5.13;3.47;;;;;;;18.45;100.00;100158.94;4961879;28;20119;-78
2023/07/01 11:59:33;;;;;;;5.25;3.05;;;;;;;18.31;100.00;100158.34;4960784;28;20121;-77
2023/07/01 12:02:29;;;;;;;3.90;3.20;;;;;;;18.28;100.00;100168.50;4961299;28;20053;-77
2023/07/01 12:05:22;;;;;;;3.97;3.47;;;;;;;18.21;100.00;100165.53;4961543;28;20051;-77
2023/07/01 12:08:08;;;;;;;3.50;3.20;;;;;;;18.24;100.00;100167.91;4960419;28;20587;-80
2023/07/01 12:10:54;;;;;;;4.65;3.22;;;;;;;18.37;100.00;100174.88;4962907;28;20061;-77
2023/07/01 12:13:39;;;;;;;4.35;2.80;;;;;;;18.50;100.00;100167.44;4960771;28;20533;-77
2023/07/01 12:16:41;;;;;;;4.00;3.10;;;;;;;18.58;100.00;100170.25;4960924;28;20742;-77
2023/07/01 12:19:30;;;;;;;4.18;2.95;;;;;;;18.58;100.00;100172.09;4960666;28;20035;-78
2023/07/01 12:22:15;;;;;;;5.32;3.00;;;;;;;18.55;100.00;100175.06;4950072;28;20057;-76
2023/07/01 12:25:01;;;;;;;6.65;2.90;;;;;;;18.58;100.00;100175.63;4947500;28;20075;-78
2023/07/01 12:27:48;;;;;;;2.92;2.42;;;;;;;18.67;100.00;100183.81;4959859;28;20035;-77
2023/07/01 12:30:33;;;;;;;2.67;2.35;;;;;;;18.63;100.00;100182.41;4961391;28;20042;-77
2023/07/01 12:33:19;;;;;;;4.10;1.90;;;;;;;18.52;100.00;100181.53;4959765;28;20169;-74
2023/07/01 12:36:06;;;;;;;3.70;1.80;;;;;;;18.43;100.00;100193.91;4961570;28;20026;-77
2023/07/01 12:38:52;;;;;;;1.50;1.40;;;;;;;18.35;100.00;100185.72;4956809;28;20030;-77
2023/07/01 12:41:39;;;;;;;2.03;1.42;;;;;;;18.33;100.00;100193.06;4961590;28;20054;-76
2023/07/01 12:44:25;;;;;;;2.83;1.80;;;;;;;18.36;100.00;100192.75;4959701;28;20042;-78
2023/07/01 12:47:11;;;;;;;3.67;2.05;;;;;;;18.30;100.00;100199.53;4962438;28;20129;-76
2023/07/01 12:50:00;;;;;;;4.13;2.50;;;;;;;18.21;100.00;100194.13;4947894;28;20066;-76
2023/07/01 12:52:52;;;;;;;4.35;2.75;;;;;;;18.22;100.00;100204.72;4948052;28;20042;-77